sensor_id;sensor_type;location;lat;lon;timestamp;P1;durP1;ratioP1;P2;durP2;ratioP2
23531;SDS011;11943;52.270;20.978;2023-08-12T00:01:31;11.68;;;4.22;;
23531;SDS011;11943;52.270;20.978;2023-08-12T00:03:57;8.93;;;4.05;;
23531;SDS011;11943;52.270;20.978;2023-08-12T00:06:22;9.63;;;3.92;;
23531;SDS011;11943;52.270;20.978;2023-08-12T00:08:48;8.65;;;4.40;;
23531;SDS011;11943;52.270;20.978;2023-08-12T00:11:14;13.15;;;4.63;;
23531;SDS011;11943;52.270;20.978;2023-08-12T00:13:39;10.38;;;4.57;;
23531;SDS011;11943;52.270;20.978;2023-08-12T00:16:05;7.68;;;4.10;;
23531;SDS011;11943;52.270;20.978;2023-08-12T00:18:31;8.75;;;3.97;;
23531;SDS011;11943;52.270;20.978;2023-08-12T00:21:05;10.38;;;4.00;;
23531;SDS011;11943;52.270;20.978;2023-08-12T00:23:32;10.85;;;4.25;;
23531;SDS011;11943;52.270;20.978;2023-08-12T00:28:25;6.95;;;3.60;;
23531;SDS011;11943;52.270;20.978;2023-08-12T00:30:51;9.65;;;4.15;;
23531;SDS011;11943;52.270;20.978;2023-08-12T00:33:17;9.65;;;4.10;;
23531;SDS011;11943;52.270;20.978;2023-08-12T00:35:43;11.18;;;4.55;;
23531;SDS011;11943;52.270;20.978;2023-08-12T00:38:08;11.38;;;4.22;;
23531;SDS011;11943;52.270;20.978;2023-08-12T00:40:34;10.73;;;4.18;;
23531;SDS011;11943;52.270;20.978;2023-08-12T00:43:00;11.07;;;4.20;;
23531;SDS011;11943;52.270;20.978;2023-08-12T00:45:25;7.93;;;4.43;;
23531;SDS011;11943;52.270;20.978;2023-08-12T00:47:51;10.68;;;3.70;;
23531;SDS011;11943;52.270;20.978;2023-08-12T00:50:17;9.60;;;4.57;;
23531;SDS011;11943;52.270;20.978;2023-08-12T00:52:42;9.15;;;4.55;;
23531;SDS011;11943;52.270;20.978;2023-08-12T00:55:08;12.80;;;4.80;;
23531;SDS011;11943;52.270;20.978;2023-08-12T00:57:35;7.43;;;4.15;;
23531;SDS011;11943;52.270;20.978;2023-08-12T01:00:02;13.32;;;4.50;;
23531;SDS011;11943;52.270;20.978;2023-08-12T01:02:29;10.55;;;4.40;;
23531;SDS011;11943;52.270;20.978;2023-08-12T01:04:54;5.70;;;3.67;;
23531;SDS011;11943;52.270;20.978;2023-08-12T01:07:20;7.22;;;4.35;;
23531;SDS011;11943;52.270;20.978;2023-08-12T01:09:46;13.43;;;4.80;;
23531;SDS011;11943;52.270;20.978;2023-08-12T01:12:13;10.75;;;4.45;;
23531;SDS011;11943;52.270;20.978;2023-08-12T01:17:16;9.32;;;4.53;;
23531;SDS011;11943;52.270;20.978;2023-08-12T01:19:43;10.52;;;4.18;;
23531;SDS011;11943;52.270;20.978;2023-08-12T01:22:12;7.82;;;4.50;;
23531;SDS011;11943;52.270;20.978;2023-08-12T01:24:46;9.07;;;4.55;;
23531;SDS011;11943;52.270;20.978;2023-08-12T01:27:12;14.52;;;5.07;;
23531;SDS011;11943;52.270;20.978;2023-08-12T01:29:39;9.70;;;5.17;;
23531;SDS011;11943;52.270;20.978;2023-08-12T01:37:44;10.40;;;4.38;;
23531;SDS011;11943;52.270;20.978;2023-08-12T01:40:10;11.88;;;5.13;;
23531;SDS011;11943;52.270;20.978;2023-08-12T01:42:39;8.95;;;5.15;;
23531;SDS011;11943;52.270;20.978;2023-08-12T01:45:05;10.65;;;5.18;;
23531;SDS011;11943;52.270;20.978;2023-08-12T01:47:31;9.35;;;4.38;;
23531;SDS011;11943;52.270;20.978;2023-08-12T01:49:57;10.95;;;4.53;;
23531;SDS011;11943;52.270;20.978;2023-08-12T01:52:23;8.73;;;4.93;;
23531;SDS011;11943;52.270;20.978;2023-08-12T01:54:49;11.40;;;5.45;;
23531;SDS011;11943;52.270;20.978;2023-08-12T01:57:15;9.57;;;4.07;;
23531;SDS011;11943;52.270;20.978;2023-08-12T01:59:41;13.07;;;5.30;;
23531;SDS011;11943;52.270;20.978;2023-08-12T02:04:34;10.73;;;4.38;;
23531;SDS011;11943;52.270;20.978;2023-08-12T02:07:02;11.88;;;4.72;;
23531;SDS011;11943;52.270;20.978;2023-08-12T02:09:28;7.60;;;4.57;;
23531;SDS011;11943;52.270;20.978;2023-08-12T02:11:53;11.40;;;4.47;;
23531;SDS011;11943;52.270;20.978;2023-08-12T02:14:19;8.85;;;4.50;;
23531;SDS011;11943;52.270;20.978;2023-08-12T02:16:45;9.55;;;5.10;;
23531;SDS011;11943;52.270;20.978;2023-08-12T02:19:10;8.32;;;5.07;;
23531;SDS011;11943;52.270;20.978;2023-08-12T02:21:36;10.68;;;4.90;;
23531;SDS011;11943;52.270;20.978;2023-08-12T02:24:02;9.63;;;4.97;;
23531;SDS011;11943;52.270;20.978;2023-08-12T02:26:27;9.30;;;4.55;;
23531;SDS011;11943;52.270;20.978;2023-08-12T02:28:53;16.65;;;5.28;;
23531;SDS011;11943;52.270;20.978;2023-08-12T02:31:19;11.63;;;5.15;;
23531;SDS011;11943;52.270;20.978;2023-08-12T02:33:44;10.32;;;4.80;;
23531;SDS011;11943;52.270;20.978;2023-08-12T02:36:10;9.30;;;4.88;;
23531;SDS011;11943;52.270;20.978;2023-08-12T02:38:36;10.85;;;4.80;;
23531;SDS011;11943;52.270;20.978;2023-08-12T02:41:01;10.27;;;5.22;;
23531;SDS011;11943;52.270;20.978;2023-08-12T02:43:27;9.20;;;5.03;;
23531;SDS011;11943;52.270;20.978;2023-08-12T02:45:52;10.98;;;4.88;;
23531;SDS011;11943;52.270;20.978;2023-08-12T02:48:18;9.98;;;5.25;;
23531;SDS011;11943;52.270;20.978;2023-08-12T02:50:44;8.63;;;4.60;;
23531;SDS011;11943;52.270;20.978;2023-08-12T02:53:09;12.05;;;5.20;;
23531;SDS011;11943;52.270;20.978;2023-08-12T02:55:35;7.97;;;5.18;;
23531;SDS011;11943;52.270;20.978;2023-08-12T02:58:02;11.65;;;4.90;;
23531;SDS011;11943;52.270;20.978;2023-08-12T03:00:28;10.70;;;5.03;;
23531;SDS011;11943;52.270;20.978;2023-08-12T03:02:54;9.48;;;5.50;;
23531;SDS011;11943;52.270;20.978;2023-08-12T03:05:20;9.73;;;5.30;;
23531;SDS011;11943;52.270;20.978;2023-08-12T03:07:46;8.35;;;4.78;;
23531;SDS011;11943;52.270;20.978;2023-08-12T03:10:12;10.57;;;5.18;;
23531;SDS011;11943;52.270;20.978;2023-08-12T03:12:37;12.48;;;5.50;;
23531;SDS011;11943;52.270;20.978;2023-08-12T03:15:04;10.00;;;5.30;;
23531;SDS011;11943;52.270;20.978;2023-08-12T03:17:31;9.40;;;5.43;;
23531;SDS011;11943;52.270;20.978;2023-08-12T03:19:57;10.00;;;5.47;;
23531;SDS011;11943;52.270;20.978;2023-08-12T03:22:24;7.90;;;5.45;;
23531;SDS011;11943;52.270;20.978;2023-08-12T03:24:53;10.68;;;5.63;;
23531;SDS011;11943;52.270;20.978;2023-08-12T03:27:19;10.52;;;5.10;;
23531;SDS011;11943;52.270;20.978;2023-08-12T03:29:44;12.38;;;5.55;;
23531;SDS011;11943;52.270;20.978;2023-08-12T03:32:10;7.47;;;5.32;;
23531;SDS011;11943;52.270;20.978;2023-08-12T03:34:35;10.25;;;5.53;;
23531;SDS011;11943;52.270;20.978;2023-08-12T03:37:01;11.93;;;5.63;;
23531;SDS011;11943;52.270;20.978;2023-08-12T03:39:27;13.02;;;5.50;;
23531;SDS011;11943;52.270;20.978;2023-08-12T03:41:52;13.13;;;5.45;;
23531;SDS011;11943;52.270;20.978;2023-08-12T03:44:18;12.60;;;5.60;;
23531;SDS011;11943;52.270;20.978;2023-08-12T03:46:44;10.57;;;5.72;;
23531;SDS011;11943;52.270;20.978;2023-08-12T03:49:10;11.38;;;5.82;;
23531;SDS011;11943;52.270;20.978;2023-08-12T03:51:35;10.98;;;5.18;;
23531;SDS011;11943;52.270;20.978;2023-08-12T03:54:01;9.95;;;5.60;;
23531;SDS011;11943;52.270;20.978;2023-08-12T03:56:27;11.38;;;5.55;;
23531;SDS011;11943;52.270;20.978;2023-08-12T03:58:52;9.43;;;5.57;;
23531;SDS011;11943;52.270;20.978;2023-08-12T04:01:18;6.82;;;4.80;;
23531;SDS011;11943;52.270;20.978;2023-08-12T04:03:43;9.63;;;5.35;;
23531;SDS011;11943;52.270;20.978;2023-08-12T04:06:09;11.10;;;5.57;;
23531;SDS011;11943;52.270;20.978;2023-08-12T04:08:34;8.95;;;5.03;;
23531;SDS011;11943;52.270;20.978;2023-08-12T04:11:00;9.50;;;5.57;;
23531;SDS011;11943;52.270;20.978;2023-08-12T04:13:26;11.07;;;5.68;;
23531;SDS011;11943;52.270;20.978;2023-08-12T04:15:51;9.65;;;5.53;;
23531;SDS011;11943;52.270;20.978;2023-08-12T04:18:20;15.80;;;6.55;;
23531;SDS011;11943;52.270;20.978;2023-08-12T04:20:46;11.00;;;6.38;;
23531;SDS011;11943;52.270;20.978;2023-08-12T04:23:13;10.98;;;6.07;;
23531;SDS011;11943;52.270;20.978;2023-08-12T04:25:39;19.00;;;6.22;;
23531;SDS011;11943;52.270;20.978;2023-08-12T04:28:04;15.90;;;6.47;;
23531;SDS011;11943;52.270;20.978;2023-08-12T04:30:30;14.45;;;6.75;;
23531;SDS011;11943;52.270;20.978;2023-08-12T04:32:56;13.57;;;6.68;;
23531;SDS011;11943;52.270;20.978;2023-08-12T04:35:22;12.48;;;6.40;;
23531;SDS011;11943;52.270;20.978;2023-08-12T04:37:47;13.95;;;6.32;;
23531;SDS011;11943;52.270;20.978;2023-08-12T04:40:13;10.52;;;6.07;;
23531;SDS011;11943;52.270;20.978;2023-08-12T04:42:38;12.00;;;6.65;;
23531;SDS011;11943;52.270;20.978;2023-08-12T04:45:04;18.25;;;6.53;;
23531;SDS011;11943;52.270;20.978;2023-08-12T04:47:30;12.82;;;6.00;;
23531;SDS011;11943;52.270;20.978;2023-08-12T04:49:56;13.38;;;6.85;;
23531;SDS011;11943;52.270;20.978;2023-08-12T04:52:21;13.82;;;6.80;;
23531;SDS011;11943;52.270;20.978;2023-08-12T04:54:47;12.93;;;7.18;;
23531;SDS011;11943;52.270;20.978;2023-08-12T04:57:13;14.55;;;6.72;;
23531;SDS011;11943;52.270;20.978;2023-08-12T04:59:38;16.50;;;6.85;;
23531;SDS011;11943;52.270;20.978;2023-08-12T05:02:04;13.65;;;6.32;;
23531;SDS011;11943;52.270;20.978;2023-08-12T05:04:29;10.10;;;5.82;;
23531;SDS011;11943;52.270;20.978;2023-08-12T05:06:55;10.60;;;6.00;;
23531;SDS011;11943;52.270;20.978;2023-08-12T05:09:21;9.23;;;5.50;;
23531;SDS011;11943;52.270;20.978;2023-08-12T05:11:46;9.52;;;5.53;;
23531;SDS011;11943;52.270;20.978;2023-08-12T05:14:12;12.85;;;5.60;;
23531;SDS011;11943;52.270;20.978;2023-08-12T05:16:37;18.10;;;6.70;;
23531;SDS011;11943;52.270;20.978;2023-08-12T05:19:03;12.20;;;6.25;;
23531;SDS011;11943;52.270;20.978;2023-08-12T05:21:29;10.20;;;5.95;;
23531;SDS011;11943;52.270;20.978;2023-08-12T05:23:54;9.82;;;6.00;;
23531;SDS011;11943;52.270;20.978;2023-08-12T05:26:20;9.43;;;5.75;;
23531;SDS011;11943;52.270;20.978;2023-08-12T05:28:46;10.10;;;5.47;;
23531;SDS011;11943;52.270;20.978;2023-08-12T05:31:12;11.93;;;6.13;;
23531;SDS011;11943;52.270;20.978;2023-08-12T05:33:38;12.75;;;5.68;;
23531;SDS011;11943;52.270;20.978;2023-08-12T05:36:04;9.77;;;5.35;;
23531;SDS011;11943;52.270;20.978;2023-08-12T05:38:29;10.02;;;5.47;;
23531;SDS011;11943;52.270;20.978;2023-08-12T05:40:55;10.18;;;5.05;;
23531;SDS011;11943;52.270;20.978;2023-08-12T05:43:21;12.60;;;5.03;;
23531;SDS011;11943;52.270;20.978;2023-08-12T05:45:47;14.15;;;5.25;;
23531;SDS011;11943;52.270;20.978;2023-08-12T05:48:13;12.87;;;5.17;;
23531;SDS011;11943;52.270;20.978;2023-08-12T05:50:38;10.55;;;4.82;;
23531;SDS011;11943;52.270;20.978;2023-08-12T05:53:05;15.25;;;4.57;;
23531;SDS011;11943;52.270;20.978;2023-08-12T05:55:33;11.10;;;4.40;;
23531;SDS011;11943;52.270;20.978;2023-08-12T05:57:59;10.65;;;3.85;;
23531;SDS011;11943;52.270;20.978;2023-08-12T06:00:25;8.45;;;4.00;;
23531;SDS011;11943;52.270;20.978;2023-08-12T06:02:52;9.75;;;3.80;;
23531;SDS011;11943;52.270;20.978;2023-08-12T06:05:18;9.30;;;4.22;;
23531;SDS011;11943;52.270;20.978;2023-08-12T06:07:43;12.93;;;4.00;;
23531;SDS011;11943;52.270;20.978;2023-08-12T06:10:09;10.50;;;3.70;;
23531;SDS011;11943;52.270;20.978;2023-08-12T06:12:35;11.68;;;3.75;;
23531;SDS011;11943;52.270;20.978;2023-08-12T06:15:01;13.45;;;3.83;;
23531;SDS011;11943;52.270;20.978;2023-08-12T06:17:26;13.35;;;3.63;;
23531;SDS011;11943;52.270;20.978;2023-08-12T06:19:52;12.32;;;3.92;;
23531;SDS011;11943;52.270;20.978;2023-08-12T06:22:18;8.73;;;3.75;;
23531;SDS011;11943;52.270;20.978;2023-08-12T06:24:43;9.10;;;3.85;;
23531;SDS011;11943;52.270;20.978;2023-08-12T06:27:09;12.90;;;4.03;;
23531;SDS011;11943;52.270;20.978;2023-08-12T06:29:35;10.02;;;4.20;;
23531;SDS011;11943;52.270;20.978;2023-08-12T06:32:00;10.32;;;3.63;;
23531;SDS011;11943;52.270;20.978;2023-08-12T06:34:26;8.63;;;3.33;;
23531;SDS011;11943;52.270;20.978;2023-08-12T06:36:52;10.38;;;3.90;;
23531;SDS011;11943;52.270;20.978;2023-08-12T06:39:17;8.25;;;3.08;;
23531;SDS011;11943;52.270;20.978;2023-08-12T06:41:43;9.18;;;2.70;;
23531;SDS011;11943;52.270;20.978;2023-08-12T06:44:08;6.32;;;2.97;;
23531;SDS011;11943;52.270;20.978;2023-08-12T06:46:34;4.60;;;2.53;;
23531;SDS011;11943;52.270;20.978;2023-08-12T06:49:00;8.10;;;3.08;;
23531;SDS011;11943;52.270;20.978;2023-08-12T06:51:25;8.57;;;2.58;;
23531;SDS011;11943;52.270;20.978;2023-08-12T06:53:51;6.60;;;2.50;;
23531;SDS011;11943;52.270;20.978;2023-08-12T06:56:17;7.57;;;2.65;;
23531;SDS011;11943;52.270;20.978;2023-08-12T06:58:42;13.57;;;2.83;;
23531;SDS011;11943;52.270;20.978;2023-08-12T07:01:08;7.15;;;2.70;;
23531;SDS011;11943;52.270;20.978;2023-08-12T07:03:33;7.07;;;3.03;;
23531;SDS011;11943;52.270;20.978;2023-08-12T07:05:59;10.65;;;3.03;;
23531;SDS011;11943;52.270;20.978;2023-08-12T07:08:25;6.10;;;2.20;;
23531;SDS011;11943;52.270;20.978;2023-08-12T07:10:52;5.90;;;2.08;;
23531;SDS011;11943;52.270;20.978;2023-08-12T07:13:18;6.72;;;2.25;;
23531;SDS011;11943;52.270;20.978;2023-08-12T07:15:43;3.97;;;1.90;;
23531;SDS011;11943;52.270;20.978;2023-08-12T07:18:09;4.72;;;2.00;;
23531;SDS011;11943;52.270;20.978;2023-08-12T07:20:35;5.88;;;2.05;;
23531;SDS011;11943;52.270;20.978;2023-08-12T07:23:00;3.67;;;2.00;;
23531;SDS011;11943;52.270;20.978;2023-08-12T07:25:26;6.95;;;2.22;;
23531;SDS011;11943;52.270;20.978;2023-08-12T07:27:52;6.30;;;2.42;;
23531;SDS011;11943;52.270;20.978;2023-08-12T07:30:17;7.13;;;1.92;;
23531;SDS011;11943;52.270;20.978;2023-08-12T07:32:43;2.35;;;1.65;;
23531;SDS011;11943;52.270;20.978;2023-08-12T07:35:08;3.72;;;1.77;;
23531;SDS011;11943;52.270;20.978;2023-08-12T07:37:34;4.63;;;1.73;;
23531;SDS011;11943;52.270;20.978;2023-08-12T07:40:00;5.43;;;1.58;;
23531;SDS011;11943;52.270;20.978;2023-08-12T07:42:26;4.38;;;1.35;;
23531;SDS011;11943;52.270;20.978;2023-08-12T07:44:51;4.82;;;2.10;;
23531;SDS011;11943;52.270;20.978;2023-08-12T07:47:17;5.70;;;1.80;;
23531;SDS011;11943;52.270;20.978;2023-08-12T07:49:43;5.45;;;1.70;;
23531;SDS011;11943;52.270;20.978;2023-08-12T07:52:09;3.85;;;1.38;;
23531;SDS011;11943;52.270;20.978;2023-08-12T07:54:35;3.67;;;1.65;;
23531;SDS011;11943;52.270;20.978;2023-08-12T07:57:01;4.93;;;1.50;;
23531;SDS011;11943;52.270;20.978;2023-08-12T07:59:26;4.55;;;1.98;;
23531;SDS011;11943;52.270;20.978;2023-08-12T08:01:52;5.68;;;1.92;;
23531;SDS011;11943;52.270;20.978;2023-08-12T08:04:18;4.97;;;1.90;;
23531;SDS011;11943;52.270;20.978;2023-08-12T08:06:43;7.70;;;1.73;;
23531;SDS011;11943;52.270;20.978;2023-08-12T08:09:09;4.88;;;1.75;;
23531;SDS011;11943;52.270;20.978;2023-08-12T08:11:35;5.13;;;1.50;;
23531;SDS011;11943;52.270;20.978;2023-08-12T08:14:01;8.80;;;2.03;;
23531;SDS011;11943;52.270;20.978;2023-08-12T08:16:27;6.50;;;1.80;;
23531;SDS011;11943;52.270;20.978;2023-08-12T08:18:53;4.05;;;1.50;;
23531;SDS011;11943;52.270;20.978;2023-08-12T08:21:19;10.13;;;2.00;;
23531;SDS011;11943;52.270;20.978;2023-08-12T08:23:45;5.88;;;1.60;;
23531;SDS011;11943;52.270;20.978;2023-08-12T08:26:11;6.15;;;1.85;;
23531;SDS011;11943;52.270;20.978;2023-08-12T08:28:38;4.45;;;1.67;;
23531;SDS011;11943;52.270;20.978;2023-08-12T08:31:03;3.28;;;1.55;;
23531;SDS011;11943;52.270;20.978;2023-08-12T08:33:29;8.05;;;1.65;;
23531;SDS011;11943;52.270;20.978;2023-08-12T08:35:55;4.47;;;1.73;;
23531;SDS011;11943;52.270;20.978;2023-08-12T08:38:20;6.75;;;1.83;;
23531;SDS011;11943;52.270;20.978;2023-08-12T08:40:46;3.72;;;1.73;;
23531;SDS011;11943;52.270;20.978;2023-08-12T08:43:15;6.50;;;1.85;;
23531;SDS011;11943;52.270;20.978;2023-08-12T08:45:43;3.83;;;1.55;;
23531;SDS011;11943;52.270;20.978;2023-08-12T08:48:09;5.13;;;2.50;;
23531;SDS011;11943;52.270;20.978;2023-08-12T08:50:37;5.15;;;1.40;;
23531;SDS011;11943;52.270;20.978;2023-08-12T08:53:04;3.58;;;1.70;;
23531;SDS011;11943;52.270;20.978;2023-08-12T08:55:32;5.43;;;1.83;;
23531;SDS011;11943;52.270;20.978;2023-08-12T08:57:58;4.80;;;1.55;;
23531;SDS011;11943;52.270;20.978;2023-08-12T09:00:24;6.65;;;1.90;;
23531;SDS011;11943;52.270;20.978;2023-08-12T09:02:52;6.50;;;1.50;;
23531;SDS011;11943;52.270;20.978;2023-08-12T09:05:19;6.38;;;1.70;;
23531;SDS011;11943;52.270;20.978;2023-08-12T09:07:45;7.70;;;1.70;;
23531;SDS011;11943;52.270;20.978;2023-08-12T09:10:12;9.95;;;2.10;;
23531;SDS011;11943;52.270;20.978;2023-08-12T09:12:38;3.05;;;1.65;;
23531;SDS011;11943;52.270;20.978;2023-08-12T09:15:04;4.15;;;1.60;;
23531;SDS011;11943;52.270;20.978;2023-08-12T09:17:31;5.50;;;1.70;;
23531;SDS011;11943;52.270;20.978;2023-08-12T09:19:58;4.18;;;1.55;;
23531;SDS011;11943;52.270;20.978;2023-08-12T09:22:25;6.22;;;2.10;;
23531;SDS011;11943;52.270;20.978;2023-08-12T09:24:57;6.23;;;2.00;;
23531;SDS011;11943;52.270;20.978;2023-08-12T09:27:23;5.10;;;2.20;;
23531;SDS011;11943;52.270;20.978;2023-08-12T09:29:49;5.15;;;2.05;;
23531;SDS011;11943;52.270;20.978;2023-08-12T09:32:20;3.45;;;1.60;;
23531;SDS011;11943;52.270;20.978;2023-08-12T09:34:46;7.38;;;1.70;;
23531;SDS011;11943;52.270;20.978;2023-08-12T09:37:13;3.53;;;1.40;;
23531;SDS011;11943;52.270;20.978;2023-08-12T09:39:39;6.80;;;1.90;;
23531;SDS011;11943;52.270;20.978;2023-08-12T09:42:06;5.30;;;1.77;;
23531;SDS011;11943;52.270;20.978;2023-08-12T09:44:34;4.40;;;1.67;;
23531;SDS011;11943;52.270;20.978;2023-08-12T09:47:01;5.03;;;1.77;;
23531;SDS011;11943;52.270;20.978;2023-08-12T09:49:26;6.90;;;1.98;;
23531;SDS011;11943;52.270;20.978;2023-08-12T09:51:53;7.72;;;2.22;;
23531;SDS011;11943;52.270;20.978;2023-08-12T09:54:19;3.75;;;1.60;;
23531;SDS011;11943;52.270;20.978;2023-08-12T09:56:47;4.57;;;2.13;;
23531;SDS011;11943;52.270;20.978;2023-08-12T09:59:15;4.50;;;1.70;;
23531;SDS011;11943;52.270;20.978;2023-08-12T10:01:45;8.80;;;2.13;;
23531;SDS011;11943;52.270;20.978;2023-08-12T10:04:12;3.90;;;1.90;;
23531;SDS011;11943;52.270;20.978;2023-08-12T10:06:41;6.18;;;1.70;;
23531;SDS011;11943;52.270;20.978;2023-08-12T10:09:08;8.37;;;1.70;;
23531;SDS011;11943;52.270;20.978;2023-08-12T10:11:36;4.40;;;1.90;;
23531;SDS011;11943;52.270;20.978;2023-08-12T10:14:03;5.80;;;2.17;;
23531;SDS011;11943;52.270;20.978;2023-08-12T10:16:29;5.75;;;2.25;;
23531;SDS011;11943;52.270;20.978;2023-08-12T10:18:55;6.80;;;2.10;;
23531;SDS011;11943;52.270;20.978;2023-08-12T10:21:24;4.32;;;2.15;;
23531;SDS011;11943;52.270;20.978;2023-08-12T10:23:51;6.28;;;2.05;;
23531;SDS011;11943;52.270;20.978;2023-08-12T10:26:18;5.18;;;2.50;;
23531;SDS011;11943;52.270;20.978;2023-08-12T10:28:44;7.07;;;2.17;;
23531;SDS011;11943;52.270;20.978;2023-08-12T10:31:11;6.35;;;1.90;;
23531;SDS011;11943;52.270;20.978;2023-08-12T10:33:37;4.47;;;2.20;;
23531;SDS011;11943;52.270;20.978;2023-08-12T10:36:04;3.65;;;1.98;;
23531;SDS011;11943;52.270;20.978;2023-08-12T10:38:31;3.42;;;1.88;;
23531;SDS011;11943;52.270;20.978;2023-08-12T10:49:10;6.57;;;2.00;;
23531;SDS011;11943;52.270;20.978;2023-08-12T10:51:39;2.85;;;1.70;;
23531;SDS011;11943;52.270;20.978;2023-08-12T11:02:29;6.68;;;2.10;;
23531;SDS011;11943;52.270;20.978;2023-08-12T11:05:08;5.30;;;1.83;;
23531;SDS011;11943;52.270;20.978;2023-08-12T11:07:44;5.63;;;1.80;;
23531;SDS011;11943;52.270;20.978;2023-08-12T11:12:37;8.85;;;2.10;;
23531;SDS011;11943;52.270;20.978;2023-08-12T11:15:05;3.45;;;2.17;;
23531;SDS011;11943;52.270;20.978;2023-08-12T11:17:38;4.95;;;1.83;;
23531;SDS011;11943;52.270;20.978;2023-08-12T11:20:06;7.78;;;2.05;;
23531;SDS011;11943;52.270;20.978;2023-08-12T11:22:41;2.53;;;1.70;;
23531;SDS011;11943;52.270;20.978;2023-08-12T11:25:08;5.82;;;1.90;;
23531;SDS011;11943;52.270;20.978;2023-08-12T11:27:39;3.67;;;2.28;;
23531;SDS011;11943;52.270;20.978;2023-08-12T11:30:10;7.50;;;1.90;;
23531;SDS011;11943;52.270;20.978;2023-08-12T11:32:40;8.93;;;1.92;;
23531;SDS011;11943;52.270;20.978;2023-08-12T11:35:13;5.13;;;2.63;;
23531;SDS011;11943;52.270;20.978;2023-08-12T11:40:08;7.63;;;2.15;;
23531;SDS011;11943;52.270;20.978;2023-08-12T11:42:36;6.53;;;2.13;;
23531;SDS011;11943;52.270;20.978;2023-08-12T11:45:05;9.13;;;1.83;;
23531;SDS011;11943;52.270;20.978;2023-08-12T11:47:35;7.45;;;2.15;;
23531;SDS011;11943;52.270;20.978;2023-08-12T11:50:02;6.05;;;2.15;;
23531;SDS011;11943;52.270;20.978;2023-08-12T11:54:54;4.25;;;1.88;;
23531;SDS011;11943;52.270;20.978;2023-08-12T11:57:21;7.95;;;1.98;;
23531;SDS011;11943;52.270;20.978;2023-08-12T11:59:47;6.22;;;2.20;;
23531;SDS011;11943;52.270;20.978;2023-08-12T12:02:13;9.68;;;2.15;;
23531;SDS011;11943;52.270;20.978;2023-08-12T12:04:40;3.88;;;2.00;;
23531;SDS011;11943;52.270;20.978;2023-08-12T12:07:18;4.18;;;2.17;;
23531;SDS011;11943;52.270;20.978;2023-08-12T12:09:44;5.25;;;2.00;;
23531;SDS011;11943;52.270;20.978;2023-08-12T12:12:10;2.60;;;1.80;;
23531;SDS011;11943;52.270;20.978;2023-08-12T12:14:36;5.05;;;2.00;;
23531;SDS011;11943;52.270;20.978;2023-08-12T12:17:06;9.27;;;2.20;;
23531;SDS011;11943;52.270;20.978;2023-08-12T12:19:33;5.18;;;2.10;;
23531;SDS011;11943;52.270;20.978;2023-08-12T12:22:01;4.70;;;2.03;;
23531;SDS011;11943;52.270;20.978;2023-08-12T12:24:30;8.75;;;2.55;;
23531;SDS011;11943;52.270;20.978;2023-08-12T12:26:56;6.03;;;1.83;;
23531;SDS011;11943;52.270;20.978;2023-08-12T12:29:22;4.13;;;1.75;;
23531;SDS011;11943;52.270;20.978;2023-08-12T12:31:48;4.00;;;1.65;;
23531;SDS011;11943;52.270;20.978;2023-08-12T12:34:14;5.18;;;1.70;;
23531;SDS011;11943;52.270;20.978;2023-08-12T12:36:40;4.97;;;2.15;;
23531;SDS011;11943;52.270;20.978;2023-08-12T12:39:05;7.70;;;1.83;;
23531;SDS011;11943;52.270;20.978;2023-08-12T12:41:32;4.53;;;1.60;;
23531;SDS011;11943;52.270;20.978;2023-08-12T12:44:01;4.37;;;1.73;;
23531;SDS011;11943;52.270;20.978;2023-08-12T12:46:27;2.72;;;1.58;;
23531;SDS011;11943;52.270;20.978;2023-08-12T12:48:53;3.00;;;1.35;;
23531;SDS011;11943;52.270;20.978;2023-08-12T12:51:19;6.50;;;1.80;;
23531;SDS011;11943;52.270;20.978;2023-08-12T12:53:44;6.88;;;1.88;;
23531;SDS011;11943;52.270;20.978;2023-08-12T12:56:10;6.28;;;1.83;;
23531;SDS011;11943;52.270;20.978;2023-08-12T12:58:36;6.90;;;1.80;;
23531;SDS011;11943;52.270;20.978;2023-08-12T13:01:03;5.53;;;1.60;;
23531;SDS011;11943;52.270;20.978;2023-08-12T13:03:30;4.78;;;1.98;;
23531;SDS011;11943;52.270;20.978;2023-08-12T13:05:56;11.40;;;1.67;;
23531;SDS011;11943;52.270;20.978;2023-08-12T13:08:22;5.13;;;1.83;;
23531;SDS011;11943;52.270;20.978;2023-08-12T13:10:48;2.63;;;1.48;;
23531;SDS011;11943;52.270;20.978;2023-08-12T13:13:15;5.70;;;1.40;;
23531;SDS011;11943;52.270;20.978;2023-08-12T13:15:41;3.05;;;1.58;;
23531;SDS011;11943;52.270;20.978;2023-08-12T13:18:07;3.45;;;1.85;;
23531;SDS011;11943;52.270;20.978;2023-08-12T13:20:34;2.67;;;1.45;;
23531;SDS011;11943;52.270;20.978;2023-08-12T13:23:00;4.57;;;1.80;;
23531;SDS011;11943;52.270;20.978;2023-08-12T13:25:28;4.65;;;1.80;;
23531;SDS011;11943;52.270;20.978;2023-08-12T13:27:55;7.35;;;1.20;;
23531;SDS011;11943;52.270;20.978;2023-08-12T13:30:20;8.52;;;1.45;;
23531;SDS011;11943;52.270;20.978;2023-08-12T13:32:46;2.05;;;1.20;;
23531;SDS011;11943;52.270;20.978;2023-08-12T13:35:12;2.65;;;1.30;;
23531;SDS011;11943;52.270;20.978;2023-08-12T13:37:37;2.70;;;1.33;;
23531;SDS011;11943;52.270;20.978;2023-08-12T13:40:03;3.30;;;1.55;;
23531;SDS011;11943;52.270;20.978;2023-08-12T13:42:30;7.35;;;1.77;;
23531;SDS011;11943;52.270;20.978;2023-08-12T13:44:55;10.18;;;1.63;;
23531;SDS011;11943;52.270;20.978;2023-08-12T13:47:21;4.60;;;1.35;;
23531;SDS011;11943;52.270;20.978;2023-08-12T13:49:47;6.05;;;1.60;;
23531;SDS011;11943;52.270;20.978;2023-08-12T13:52:12;3.45;;;1.60;;
23531;SDS011;11943;52.270;20.978;2023-08-12T13:54:38;3.70;;;1.50;;
23531;SDS011;11943;52.270;20.978;2023-08-12T13:57:03;3.88;;;1.40;;
23531;SDS011;11943;52.270;20.978;2023-08-12T13:59:29;5.53;;;1.50;;
23531;SDS011;11943;52.270;20.978;2023-08-12T14:01:55;4.60;;;1.40;;
23531;SDS011;11943;52.270;20.978;2023-08-12T14:04:21;4.47;;;1.50;;
23531;SDS011;11943;52.270;20.978;2023-08-12T14:06:46;4.35;;;1.65;;
23531;SDS011;11943;52.270;20.978;2023-08-12T14:09:12;4.88;;;1.02;;
23531;SDS011;11943;52.270;20.978;2023-08-12T14:11:39;3.17;;;1.33;;
23531;SDS011;11943;52.270;20.978;2023-08-12T14:14:05;3.42;;;1.45;;
23531;SDS011;11943;52.270;20.978;2023-08-12T14:16:31;3.58;;;1.15;;
23531;SDS011;11943;52.270;20.978;2023-08-12T14:18:56;3.30;;;1.35;;
23531;SDS011;11943;52.270;20.978;2023-08-12T14:21:22;5.63;;;1.30;;
23531;SDS011;11943;52.270;20.978;2023-08-12T14:23:48;3.95;;;1.63;;
23531;SDS011;11943;52.270;20.978;2023-08-12T14:26:13;31.00;;;3.10;;
23531;SDS011;11943;52.270;20.978;2023-08-12T14:28:39;4.72;;;1.60;;
23531;SDS011;11943;52.270;20.978;2023-08-12T14:31:05;2.70;;;1.40;;
23531;SDS011;11943;52.270;20.978;2023-08-12T14:33:30;5.90;;;1.45;;
23531;SDS011;11943;52.270;20.978;2023-08-12T14:35:59;3.97;;;1.33;;
23531;SDS011;11943;52.270;20.978;2023-08-12T14:38:26;3.38;;;1.33;;
23531;SDS011;11943;52.270;20.978;2023-08-12T14:40:52;4.10;;;1.27;;
23531;SDS011;11943;52.270;20.978;2023-08-12T14:43:18;7.60;;;1.50;;
23531;SDS011;11943;52.270;20.978;2023-08-12T14:45:46;3.25;;;1.52;;
23531;SDS011;11943;52.270;20.978;2023-08-12T14:48:12;3.45;;;1.40;;
23531;SDS011;11943;52.270;20.978;2023-08-12T14:50:40;4.40;;;1.60;;
23531;SDS011;11943;52.270;20.978;2023-08-12T14:53:06;4.60;;;1.50;;
23531;SDS011;11943;52.270;20.978;2023-08-12T14:55:32;21.85;;;3.42;;
23531;SDS011;11943;52.270;20.978;2023-08-12T14:57:58;13.50;;;2.80;;
23531;SDS011;11943;52.270;20.978;2023-08-12T15:00:24;3.80;;;1.88;;
23531;SDS011;11943;52.270;20.978;2023-08-12T15:02:49;6.30;;;1.20;;